Time;durP1;ratioP1;P1;durP2;ratioP2;P2;SDS_P1;SDS_P2;PMS_P1;PMS_P2;Temp;Humidity;BMP_temperature;BMP_pressure;BME280_temperature;BME280_humidity;BME280_pressure;Samples;Min_cycle;Max_cycle;Signal;HPM_P1;HPM_P2
2021/06/23 00:01:41;;;;;;;11.85;3.92;;;;;;;13.72;74.70;101944.50;5049928;28;20048;-49
2021/06/23 00:04:08;;;;;;;9.95;4.25;;;;;;;13.65;74.65;101942.00;5046077;28;20487;-46
2021/06/23 00:06:36;;;;;;;13.05;4.45;;;;;;;13.71;75.37;101945.59;5053717;28;20049;-48
2021/06/23 00:09:04;;;;;;;11.07;4.28;;;;;;;13.58;74.69;101942.19;5054734;28;20052;-48
2021/06/23 00:11:45;;;;;;;13.13;4.57;;;;;;;13.46;74.86;101938.81;5054743;28;20067;-48
2021/06/23 00:14:13;;;;;;;10.65;4.38;;;;;;;13.40;75.87;101939.88;5054120;28;20075;-48
2021/06/23 00:16:41;;;;;;;9.63;4.30;;;;;;;13.46;75.80;101933.34;5054820;28;20090;-47
2021/06/23 00:19:09;;;;;;;10.68;4.63;;;;;;;13.56;75.95;101929.84;5054868;28;20037;-47
2021/06/23 00:21:37;;;;;;;11.43;4.72;;;;;;;13.57;74.80;101928.78;5054284;28;20052;-48
2021/06/23 00:24:05;;;;;;;14.30;4.47;;;;;;;13.61;75.50;101927.16;5054542;28;20049;-48
2021/06/23 00:26:34;;;;;;;13.20;4.78;;;;;;;13.76;75.15;101918.25;5054447;28;20048;-48
2021/06/23 00:29:03;;;;;;;11.52;3.92;;;;;;;13.87;74.68;101917.22;5053961;28;20503;-47
2021/06/23 00:31:32;;;;;;;11.43;4.28;;;;;;;13.83;74.10;101921.59;5054538;28;20553;-48
2021/06/23 00:34:02;;;;;;;12.70;4.47;;;;;;;13.75;73.88;101922.06;5054125;28;20048;-47
2021/06/23 00:36:30;;;;;;;11.20;4.45;;;;;;;13.78;74.40;101918.78;5054463;28;20073;-48
2021/06/23 00:38:58;;;;;;;13.02;4.40;;;;;;;13.61;74.37;101922.53;5054458;28;20070;-47
2021/06/23 00:41:28;;;;;;;12.63;5.10;;;;;;;13.67;74.41;101923.38;5054440;28;20045;-48
2021/06/23 00:43:57;;;;;;;9.52;4.10;;;;;;;13.67;74.42;101922.56;5049182;28;20782;-48
2021/06/23 00:46:26;;;;;;;13.93;5.05;;;;;;;13.67;74.33;101922.56;5052092;28;20087;-48
2021/06/23 00:49:01;;;;;;;10.32;4.60;;;;;;;13.66;74.35;101920.91;5053026;28;20041;-45
2021/06/23 00:51:37;;;;;;;15.25;4.32;;;;;;;13.66;74.80;101926.38;5052469;28;20052;-47
2021/06/23 00:54:22;;;;;;;13.73;5.35;;;;;;;13.64;73.90;101924.75;5052408;28;20064;-48
2021/06/23 00:56:50;;;;;;;13.38;4.70;;;;;;;13.59;74.60;101934.84;5052590;28;20045;-48
2021/06/23 00:59:18;;;;;;;9.70;4.65;;;;;;;13.37;74.87;101932.16;5052596;28;20095;-48
2021/06/23 01:01:46;;;;;;;11.40;4.40;;;;;;;13.38;75.53;101929.16;5036300;28;20452;-45
2021/06/23 01:04:14;;;;;;;11.70;4.80;;;;;;;13.50;75.00;101926.25;5052934;28;20530;-47
2021/06/23 01:06:45;;;;;;;12.70;4.63;;;;;;;13.54;74.64;101919.19;5033106;28;20053;-50
2021/06/23 01:09:13;;;;;;;10.32;4.35;;;;;;;13.59;74.37;101924.69;5036301;28;20045;-48
2021/06/23 01:11:56;;;;;;;12.80;4.65;;;;;;;13.67;74.19;101934.34;5053455;28;20037;-47
2021/06/23 01:14:25;;;;;;;10.65;4.80;;;;;;;13.70;73.78;101933.81;5051974;28;20526;-48
2021/06/23 01:16:53;;;;;;;9.60;4.50;;;;;;;13.73;73.70;101927.78;5052079;28;20395;-46
2021/06/23 01:19:25;;;;;;;11.55;5.10;;;;;;;13.61;74.05;101935.38;5051534;28;20443;-47
2021/06/23 01:21:53;;;;;;;12.80;4.88;;;;;;;13.61;73.77;101936.22;5053058;28;20053;-47
2021/06/23 01:24:21;;;;;;;12.32;5.10;;;;;;;13.61;73.65;101933.47;5052069;28;20041;-47
2021/06/23 01:26:49;;;;;;;12.30;5.05;;;;;;;13.59;73.90;101948.53;5051667;28;20053;-48
2021/06/23 01:29:17;;;;;;;9.68;4.55;;;;;;;13.55;74.48;101950.94;5053450;28;20071;-48
2021/06/23 01:31:52;;;;;;;12.13;4.55;;;;;;;13.57;74.27;101951.50;5052151;28;20041;-45
2021/06/23 01:34:20;;;;;;;8.98;4.30;;;;;;;13.43;74.45;101939.34;5053277;28;20065;-44
2021/06/23 01:36:48;;;;;;;13.93;4.70;;;;;;;13.43;74.78;101942.88;5035544;28;20056;-46
2021/06/23 01:39:15;;;;;;;12.32;5.05;;;;;;;13.36;75.22;101950.50;5052888;28;20503;-46
2021/06/23 01:41:47;;;;;;;12.05;4.97;;;;;;;13.36;75.30;101946.94;5052552;28;20403;-49
2021/06/23 01:44:18;;;;;;;11.73;4.32;;;;;;;13.44;75.60;101949.19;5052649;28;20510;-48
2021/06/23 01:46:46;;;;;;;10.95;4.25;;;;;;;13.52;74.67;101951.47;5053225;28;20064;-47
2021/06/23 01:49:26;;;;;;;12.63;4.50;;;;;;;13.44;74.52;101960.13;5051610;28;20084;-49
2021/06/23 01:51:54;;;;;;;10.63;4.43;;;;;;;13.49;74.48;101971.13;5051628;28;20052;-46
2021/06/23 01:54:22;;;;;;;12.88;5.22;;;;;;;13.50;74.85;101972.81;5051535;28;20037;-48
2021/06/23 01:56:50;;;;;;;10.48;4.65;;;;;;;13.56;74.49;101962.72;5067556;28;20055;-47
2021/06/23 01:59:19;;;;;;;13.55;4.63;;;;;;;13.46;73.98;101971.66;5047855;28;20412;-46
2021/06/23 02:02:15;;;;;;;9.98;4.13;;;;;;;13.50;74.59;101967.31;5050422;28;20103;-44
2021/06/23 02:05:05;;;;;;;13.95;4.80;;;;;;;13.59;74.10;101971.25;5051321;28;20068;-46
2021/06/23 02:08:00;;;;;;;11.10;4.35;;;;;;;13.62;74.04;101976.19;5052257;28;20057;-47
2021/06/23 02:10:53;;;;;;;13.15;4.75;;;;;;;13.64;73.27;101973.22;5051059;28;20054;-47
2021/06/23 02:14:01;;;;;;;10.57;4.43;;;;;;;13.66;73.18;101979.22;5052108;28;20045;-46
2021/06/23 02:16:47;;;;;;;11.93;4.53;;;;;;;13.55;73.72;101975.59;5051409;28;20043;-44
2021/06/23 02:19:18;;;;;;;11.85;4.15;;;;;;;13.55;73.76;101978.31;5050936;28;20040;-45
2021/06/23 02:22:02;;;;;;;14.90;4.65;;;;;;;13.55;74.59;101986.53;5036829;28;20055;-45
2021/06/23 02:24:32;;;;;;;14.57;4.40;;;;;;;13.56;73.99;101988.19;5050393;28;20458;-44
2021/06/23 02:27:08;;;;;;;13.55;4.82;;;;;;;13.54;74.21;101984.91;5048175;28;20045;-45
2021/06/23 02:29:37;;;;;;;10.77;4.22;;;;;;;13.47;75.01;101989.75;5049636;28;20053;-45
2021/06/23 02:32:06;;;;;;;12.45;4.30;;;;;;;13.50;75.03;101988.41;5050796;28;20052;-46
2021/06/23 02:34:37;;;;;;;9.02;3.88;;;;;;;13.59;75.24;101993.16;5031535;28;20041;-47
2021/06/23 02:37:11;;;;;;;9.57;4.13;;;;;;;13.55;74.16;101997.50;5042152;28;20076;-47
2021/06/23 02:39:39;;;;;;;10.27;4.30;;;;;;;13.49;74.56;101990.31;5051429;28;20041;-47
2021/06/23 02:42:10;;;;;;;13.45;4.90;;;;;;;13.49;74.99;101995.78;5051054;28;20559;-47
2021/06/23 02:44:39;;;;;;;12.38;4.47;;;;;;;13.48;74.48;101990.56;5052254;28;20077;-49
2021/06/23 02:47:09;;;;;;;14.15;4.32;;;;;;;13.49;74.82;101989.47;5034907;28;20051;-48
2021/06/23 02:50:03;;;;;;;12.93;4.35;;;;;;;13.51;74.57;101996.34;5050593;28;20033;-45
2021/06/23 02:52:35;;;;;;;12.48;4.80;;;;;;;13.55;74.75;101989.28;5047778;28;20041;-47
2021/06/23 02:55:04;;;;;;;11.77;4.38;;;;;;;13.62;74.95;101989.91;5049732;28;20041;-48
2021/06/23 02:57:34;;;;;;;11.55;4.50;;;;;;;13.60;74.34;101994.81;5052059;28;20036;-48
2021/06/23 03:00:07;;;;;;;13.75;4.72;;;;;;;13.62;73.99;101984.41;5051445;28;20123;-46
2021/06/23 03:02:40;;;;;;;10.85;4.10;;;;;;;13.64;74.69;101981.44;5047319;28;20049;-45
2021/06/23 03:05:10;;;;;;;13.38;4.50;;;;;;;13.58;73.76;101988.75;5046274;28;20052;-46
2021/06/23 03:07:37;;;;;;;13.07;4.55;;;;;;;13.50;74.63;101988.41;5047318;28;20084;-45
2021/06/23 03:10:12;;;;;;;13.00;5.07;;;;;;;13.40;74.86;101989.13;5046292;28;20045;-46
2021/06/23 03:12:58;;;;;;;12.45;4.50;;;;;;;13.44;75.33;101995.72;5051940;28;20052;-45
2021/06/23 03:15:45;;;;;;;11.35;4.78;;;;;;;13.39;74.95;101992.94;5050590;28;20411;-45
2021/06/23 03:18:33;;;;;;;10.07;4.13;;;;;;;13.35;75.13;101991.81;5050650;28;20090;-45
2021/06/23 03:21:04;;;;;;;12.30;4.88;;;;;;;13.33;75.25;101992.06;5051615;28;20128;-49
2021/06/23 03:23:34;;;;;;;11.38;4.50;;;;;;;13.31;74.99;101990.69;5050987;28;20045;-47
2021/06/23 03:26:03;;;;;;;9.48;4.05;;;;;;;13.32;75.50;101987.66;5050398;28;20048;-48
2021/06/23 03:28:32;;;;;;;10.65;4.10;;;;;;;13.35;75.45;101991.81;5051860;28;20056;-47
2021/06/23 03:31:02;;;;;;;13.18;4.75;;;;;;;13.31;75.27;101983.28;5050531;28;20045;-49
2021/06/23 03:33:35;;;;;;;13.45;4.43;;;;;;;13.36;75.48;101996.22;5050356;28;20048;-48
2021/06/23 03:36:14;;;;;;;12.02;3.80;;;;;;;13.42;75.04;101992.41;5038015;28;20041;-48
2021/06/23 03:38:43;;;;;;;15.55;4.95;;;;;;;13.38;74.34;101991.31;5051469;28;20518;-48
2021/06/23 03:41:12;;;;;;;12.02;4.18;;;;;;;13.35;74.81;101989.09;5051832;28;20048;-49
2021/06/23 03:43:42;;;;;;;12.90;4.60;;;;;;;13.37;74.74;101995.97;5054025;28;20053;-48
2021/06/23 03:46:10;;;;;;;12.73;4.22;;;;;;;13.40;74.23;101989.97;5055458;28;20046;-48
2021/06/23 03:48:40;;;;;;;12.63;4.30;;;;;;;13.40;74.13;101997.34;5054348;28;20929;-48
2021/06/23 03:51:13;;;;;;;14.43;4.40;;;;;;;13.32;73.81;101992.31;5053592;28;20068;-48
2021/06/23 03:53:41;;;;;;;11.27;4.13;;;;;;;13.28;74.04;101996.69;5050548;28;20049;-49
2021/06/23 03:56:10;;;;;;;13.70;4.07;;;;;;;13.25;73.97;101992.47;5049008;28;20033;-47
2021/06/23 03:58:37;;;;;;;13.77;4.10;;;;;;;13.22;73.30;101993.00;5055165;28;20087;-49
2021/06/23 04:01:05;;;;;;;12.98;4.10;;;;;;;13.24;73.99;102000.97;5054805;28;20091;-44
2021/06/23 04:03:40;;;;;;;11.45;3.70;;;;;;;13.31;74.23;102001.63;5053550;28;20048;-47
2021/06/23 04:06:40;;;;;;;10.80;3.63;;;;;;;13.38;73.74;102005.00;5032102;28;20057;-47
2021/06/23 04:09:11;;;;;;;16.05;4.63;;;;;;;13.33;73.21;101994.00;5016281;28;20065;-49
2021/06/23 04:11:44;;;;;;;12.13;4.18;;;;;;;13.29;73.08;101993.66;5013241;28;20109;-48
2021/06/23 04:14:12;;;;;;;9.40;4.10;;;;;;;13.29;73.45;101999.13;5032432;28;20068;-47
2021/06/23 04:16:39;;;;;;;11.68;4.10;;;;;;;13.30;73.68;102003.53;5032460;28;20069;-48
2021/06/23 04:19:07;;;;;;;11.13;4.13;;;;;;;13.35;73.64;101998.13;4999509;28;20046;-49
2021/06/23 04:21:43;;;;;;;10.32;3.78;;;;;;;13.37;73.27;101995.97;5031847;28;20057;-49
2021/06/23 04:24:12;;;;;;;13.48;4.15;;;;;;;13.35;72.93;102003.59;5032089;28;20052;-47
2021/06/23 04:26:46;;;;;;;13.20;4.05;;;;;;;13.28;72.95;101994.75;5032445;28;20077;-46
2021/06/23 04:29:17;;;;;;;10.77;3.83;;;;;;;13.26;73.71;102002.38;5032199;28;20068;-48
2021/06/23 04:31:46;;;;;;;19.75;4.82;;;;;;;13.22;73.57;101999.31;5032256;28;20050;-49
2021/06/23 04:34:17;;;;;;;16.27;4.35;;;;;;;13.17;73.96;101995.69;5031853;28;20624;-48
2021/06/23 04:36:48;;;;;;;9.15;3.63;;;;;;;13.13;74.42;102000.88;5031822;28;20054;-49
2021/06/23 04:39:16;;;;;;;14.38;4.60;;;;;;;13.12;74.01;101996.47;5031757;28;20076;-48
2021/06/23 04:42:07;;;;;;;8.95;3.70;;;;;;;13.21;74.28;101994.94;5037300;28;20599;-47
2021/06/23 04:44:37;;;;;;;11.77;4.18;;;;;;;13.21;73.85;102002.31;5052665;28;20060;-50
2021/06/23 04:47:05;;;;;;;13.95;4.18;;;;;;;13.16;74.27;101994.88;5054247;28;20052;-49
2021/06/23 04:49:33;;;;;;;10.75;4.07;;;;;;;13.20;74.64;101996.03;5052605;28;20060;-50
2021/06/23 04:52:20;;;;;;;13.32;4.03;;;;;;;13.31;74.01;101996.16;5052921;28;20071;-49
2021/06/23 04:54:48;;;;;;;14.65;4.65;;;;;;;13.35;73.35;102000.03;5053227;28;20569;-50
2021/06/23 04:57:16;;;;;;;14.02;4.82;;;;;;;13.33;73.27;101996.72;5053896;28;20049;-49
2021/06/23 04:59:44;;;;;;;10.75;3.65;;;;;;;13.37;73.36;101995.97;5049421;28;20045;-48
2021/06/23 05:02:14;;;;;;;9.65;3.78;;;;;;;13.39;73.54;101998.41;5049854;28;20045;-48
2021/06/23 05:04:46;;;;;;;10.95;4.30;;;;;;;13.41;72.95;101997.06;5045606;28;20060;-49
2021/06/23 05:07:14;;;;;;;12.18;4.20;;;;;;;13.31;72.54;102001.63;5053757;28;20044;-48
2021/06/23 05:09:42;;;;;;;10.90;3.95;;;;;;;13.26;72.98;102004.28;5053609;28;20098;-48
2021/06/23 05:12:10;;;;;;;9.93;3.63;;;;;;;13.27;73.19;102003.19;5053586;28;20095;-48
2021/06/23 05:14:37;;;;;;;11.48;4.00;;;;;;;13.29;72.80;102003.78;5053613;28;20122;-49
2021/06/23 05:17:05;;;;;;;13.30;4.07;;;;;;;13.27;73.02;102000.44;5053442;28;20037;-48
2021/06/23 05:19:35;;;;;;;12.50;4.43;;;;;;;13.28;73.80;102007.63;5052007;28;20415;-47
2021/06/23 05:22:04;;;;;;;9.95;4.07;;;;;;;13.29;73.34;102003.78;5051968;28;20057;-48
2021/06/23 05:24:32;;;;;;;18.23;4.60;;;;;;;13.31;73.29;102007.09;5053690;28;20087;-48
2021/06/23 05:27:00;;;;;;;12.25;4.47;;;;;;;13.21;73.19;101999.59;5035305;28;20056;-47
2021/06/23 05:29:27;;;;;;;16.05;4.13;;;;;;;13.22;74.14;102007.50;5053627;28;20049;-45
2021/06/23 05:31:55;;;;;;;15.88;4.43;;;;;;;13.29;73.84;102003.78;5054205;28;20041;-48
2021/06/23 05:34:23;;;;;;;12.70;3.95;;;;;;;13.27;74.21;102006.78;5052813;28;20496;-48
2021/06/23 05:36:50;;;;;;;11.38;4.22;;;;;;;13.12;73.96;102010.16;5053373;28;20049;-47
2021/06/23 05:39:18;;;;;;;10.55;4.28;;;;;;;13.14;73.99;102013.44;5053330;28;20087;-48
2021/06/23 05:41:46;;;;;;;13.90;4.80;;;;;;;13.26;74.04;102009.75;5052975;28;20492;-48
2021/06/23 05:44:13;;;;;;;12.32;3.80;;;;;;;13.34;73.31;102012.06;5052803;28;20067;-50
2021/06/23 05:46:41;;;;;;;13.43;4.32;;;;;;;13.27;72.87;102011.41;5053166;28;20052;-48
2021/06/23 05:49:09;;;;;;;11.27;4.50;;;;;;;13.23;74.17;102013.84;5051451;28;20053;-51
2021/06/23 05:51:36;;;;;;;13.63;4.55;;;;;;;13.27;73.57;102014.13;5052847;28;20044;-48
2021/06/23 05:54:04;;;;;;;15.30;4.78;;;;;;;13.32;74.16;102012.31;5052633;28;20060;-49
2021/06/23 05:56:32;;;;;;;13.15;4.82;;;;;;;13.33;73.80;102021.38;5052546;28;20052;-49
2021/06/23 05:58:59;;;;;;;16.10;4.78;;;;;;;13.31;73.58;102018.88;5052807;28;20041;-48
2021/06/23 06:01:27;;;;;;;13.07;4.43;;;;;;;13.38;73.40;102024.16;5052582;28;20037;-48
2021/06/23 06:03:55;;;;;;;14.02;4.35;;;;;;;13.40;72.35;102019.25;5052631;28;20047;-48
2021/06/23 06:06:22;;;;;;;13.27;4.43;;;;;;;13.42;73.32;102023.38;5052499;28;20041;-48
2021/06/23 06:08:51;;;;;;;14.10;4.72;;;;;;;13.42;72.43;102030.75;5052561;28;20064;-47
2021/06/23 06:11:19;;;;;;;11.27;4.60;;;;;;;13.35;72.97;102030.16;5052087;28;20615;-49
2021/06/23 06:13:46;;;;;;;13.60;3.85;;;;;;;13.31;73.21;102035.31;5051956;28;20495;-50
2021/06/23 06:16:14;;;;;;;10.48;4.13;;;;;;;13.26;73.05;102039.88;5051990;28;20566;-48
2021/06/23 06:18:44;;;;;;;11.65;4.43;;;;;;;13.15;72.45;102047.94;5051619;28;20048;-48
2021/06/23 06:21:12;;;;;;;12.23;4.10;;;;;;;13.14;73.00;102050.94;5052000;28;20056;-48
2021/06/23 06:23:40;;;;;;;12.95;4.90;;;;;;;13.19;72.79;102043.63;5052072;28;20057;-48
2021/06/23 06:26:08;;;;;;;10.77;3.80;;;;;;;13.26;73.18;102048.06;5052283;28;20040;-47
2021/06/23 06:28:37;;;;;;;14.25;3.90;;;;;;;13.27;72.43;102055.19;5052362;28;20045;-48
2021/06/23 06:31:06;;;;;;;12.07;3.83;;;;;;;13.25;72.59;102051.88;5050770;28;20033;-49
2021/06/23 06:33:34;;;;;;;13.38;3.97;;;;;;;13.31;72.70;102051.72;5051326;28;20049;-47
2021/06/23 06:36:02;;;;;;;11.50;4.32;;;;;;;13.37;72.54;102053.44;5061958;28;20044;-47
2021/06/23 06:38:30;;;;;;;12.55;4.05;;;;;;;13.32;71.92;102058.03;5051436;28;20045;-49
2021/06/23 06:40:57;;;;;;;10.77;3.58;;;;;;;13.35;72.07;102063.00;5051935;28;20063;-47
2021/06/23 06:43:25;;;;;;;11.68;3.83;;;;;;;13.33;71.05;102062.44;5051326;28;20044;-48
2021/06/23 06:45:53;;;;;;;12.25;4.00;;;;;;;13.28;72.44;102062.38;5050530;28;20487;-47
2021/06/23 06:48:22;;;;;;;13.48;4.00;;;;;;;13.27;72.69;102057.94;5051989;28;20583;-47
2021/06/23 06:50:50;;;;;;;14.15;3.97;;;;;;;13.31;72.24;102061.84;5051622;28;20048;-48
2021/06/23 06:53:18;;;;;;;10.73;3.72;;;;;;;13.39;72.91;102064.13;5051626;28;20048;-49
2021/06/23 06:55:46;;;;;;;11.20;4.18;;;;;;;13.46;72.39;102066.66;5051805;28;20033;-49
2021/06/23 06:58:14;;;;;;;12.57;4.13;;;;;;;13.40;72.02;102060.31;5051920;28;20040;-49
2021/06/23 07:00:42;;;;;;;14.43;3.85;;;;;;;13.45;72.36;102063.09;5051733;28;20045;-49
2021/06/23 07:03:10;;;;;;;13.55;4.25;;;;;;;13.50;72.23;102065.91;5050127;28;20057;-47
2021/06/23 07:05:38;;;;;;;13.90;4.20;;;;;;;13.43;71.84;102065.28;5051545;28;20426;-48
2021/06/23 07:08:05;;;;;;;11.82;3.75;;;;;;;13.36;72.41;102076.41;5051569;28;20045;-52
2021/06/23 07:10:33;;;;;;;11.23;4.03;;;;;;;13.43;72.98;102074.31;5051605;28;20102;-48
2021/06/23 07:13:03;;;;;;;12.73;4.38;;;;;;;13.50;71.95;102070.56;5051359;28;20075;-49
2021/06/23 07:15:31;;;;;;;8.73;3.70;;;;;;;13.50;72.26;102067.81;5050934;28;20061;-49
2021/06/23 07:17:59;;;;;;;12.23;3.90;;;;;;;13.50;72.79;102068.63;5054755;28;20415;-50
2021/06/23 07:20:27;;;;;;;21.83;4.45;;;;;;;13.47;72.71;102066.41;5054887;28;20511;-48
2021/06/23 07:22:55;;;;;;;13.63;4.03;;;;;;;13.55;72.42;102068.69;5053879;28;20045;-49
2021/06/23 07:25:23;;;;;;;11.63;4.13;;;;;;;13.59;72.53;102074.50;5053672;28;20048;-46
2021/06/23 07:27:56;;;;;;;9.55;4.20;;;;;;;13.61;72.09;102073.16;5055329;28;20103;-50
2021/06/23 07:30:23;;;;;;;14.93;4.05;;;;;;;13.64;71.94;102067.16;5054491;28;20076;-50
2021/06/23 07:33:08;;;;;;;12.35;4.10;;;;;;;13.75;71.62;102067.25;5055163;28;20033;-48
2021/06/23 07:38:22;;;;;;;10.75;3.65;;;;;;;13.74;71.65;102060.94;5054951;28;20044;-47
2021/06/23 07:43:18;;;;;;;18.73;5.15;;;;;;;13.84;72.07;102065.69;5054615;28;20087;-49
2021/06/23 07:45:51;;;;;;;12.02;4.28;;;;;;;13.82;70.92;102067.88;5054586;28;20503;-49
2021/06/23 07:48:29;;;;;;;16.17;4.13;;;;;;;13.87;70.92;102062.44;5055265;28;20041;-48
2021/06/23 07:51:10;;;;;;;14.43;4.30;;;;;;;13.90;70.34;102058.34;5054711;28;20049;-46
2021/06/23 08:09:39;;;;;;;12.52;3.75;;;;;;;13.90;69.44;102069.31;5045355;28;19931;-48
2021/06/23 08:12:30;;;;;;;14.48;3.63;;;;;;;13.95;69.21;102072.94;5054072;28;20048;-47
2021/06/23 08:14:55;;;;;;;13.18;4.07;;;;;;;14.01;68.13;102071.06;5053045;28;20407;-46
2021/06/23 08:17:22;;;;;;;14.43;4.00;;;;;;;14.02;68.56;102072.69;5054326;28;20407;-48
2021/06/23 08:19:50;;;;;;;13.98;4.00;;;;;;;14.05;68.14;102078.50;5054786;28;20041;-49
2021/06/23 08:22:18;;;;;;;9.73;3.28;;;;;;;14.10;67.83;102071.41;5053972;28;20049;-47
2021/06/23 08:24:45;;;;;;;16.05;3.78;;;;;;;14.10;68.12;102072.25;5054195;28;20381;-48
2021/06/23 08:27:13;;;;;;;14.70;3.97;;;;;;;14.16;67.91;102068.44;5053783;28;20048;-49
2021/06/23 08:29:41;;;;;;;15.18;3.75;;;;;;;14.18;67.62;102066.25;5053016;28;20049;-48
2021/06/23 08:32:08;;;;;;;11.45;3.95;;;;;;;14.28;66.97;102065.50;5053834;28;20507;-49
2021/06/23 08:34:36;;;;;;;17.48;4.00;;;;;;;14.25;66.40;102061.38;5053825;28;20033;-51
2021/06/23 08:37:04;;;;;;;13.88;3.72;;;;;;;14.23;65.63;102069.03;5054258;28;20045;-48
2021/06/23 08:39:32;;;;;;;12.63;3.22;;;;;;;14.20;65.46;102061.34;5053851;28;20118;-54
2021/06/23 08:42:00;;;;;;;12.32;3.70;;;;;;;14.21;66.25;102075.88;5053636;28;20051;-49
2021/06/23 08:44:27;;;;;;;12.30;3.53;;;;;;;14.27;66.32;102069.34;5053931;28;20037;-48
2021/06/23 08:46:55;;;;;;;13.05;4.10;;;;;;;14.27;66.50;102075.66;5054235;28;20037;-48
2021/06/23 08:49:26;;;;;;;13.25;3.75;;;;;;;14.25;65.26;102077.00;5052734;28;20059;-49
2021/06/23 08:51:55;;;;;;;15.45;3.80;;;;;;;14.33;65.79;102072.97;5053666;28;20041;-49
2021/06/23 08:54:23;;;;;;;9.48;3.20;;;;;;;14.33;65.79;102082.00;5054010;28;20041;-48
2021/06/23 08:56:51;;;;;;;12.30;3.47;;;;;;;14.32;66.75;102077.63;5053332;28;20082;-48
2021/06/23 08:59:19;;;;;;;12.93;3.72;;;;;;;14.29;66.13;102078.16;5053651;28;20043;-48
2021/06/23 09:01:48;;;;;;;13.98;4.25;;;;;;;14.32;66.48;102077.63;5053571;28;20048;-48
2021/06/23 09:04:17;;;;;;;15.48;4.10;;;;;;;14.38;66.29;102076.59;5053304;28;20048;-49
2021/06/23 09:06:52;;;;;;;14.38;3.90;;;;;;;14.42;67.24;102072.19;5052724;28;20063;-50
2021/06/23 09:09:22;;;;;;;14.15;4.10;;;;;;;14.47;67.47;102080.47;5053136;28;20044;-50
2021/06/23 09:11:52;;;;;;;13.40;3.70;;;;;;;14.52;67.23;102084.34;5048225;28;20511;-50
2021/06/23 09:14:21;;;;;;;15.70;5.13;;;;;;;14.58;67.36;102075.09;5053306;28;20037;-48
2021/06/23 09:17:16;;;;;;;15.52;4.43;;;;;;;14.61;66.46;102072.66;5053259;28;20033;-49
2021/06/23 09:19:56;;;;;;;12.57;4.47;;;;;;;14.66;66.00;102077.34;5052838;28;20040;-49
2021/06/23 09:22:40;;;;;;;13.48;4.55;;;;;;;14.68;66.45;102077.91;5052427;28;20076;-49
2021/06/23 09:25:13;;;;;;;12.32;4.18;;;;;;;14.66;66.47;102078.16;5052417;28;20067;-49
2021/06/23 09:27:56;;;;;;;15.63;4.57;;;;;;;14.72;66.26;102080.94;5052952;28;20051;-49
2021/06/23 09:30:50;;;;;;;13.38;4.53;;;;;;;14.80;65.75;102080.44;5052759;28;20041;-51
2021/06/23 09:33:25;;;;;;;11.93;3.50;;;;;;;14.83;64.96;102082.66;5041110;28;20056;-50
2021/06/23 09:36:04;;;;;;;13.38;3.60;;;;;;;14.83;65.48;102080.72;5051387;28;20041;-51
2021/06/23 09:38:52;;;;;;;33.97;17.48;;;;;;;14.88;65.85;102085.41;5052280;28;20037;-49
2021/06/23 09:41:26;;;;;;;14.55;6.50;;;;;;;14.98;64.99;102081.91;5041509;28;20063;-49
2021/06/23 09:44:06;;;;;;;15.43;4.68;;;;;;;15.01;64.42;102078.63;5052184;28;20045;-48
2021/06/23 09:46:39;;;;;;;13.25;3.97;;;;;;;15.03;64.21;102081.94;5052731;28;20094;-49
2021/06/23 09:49:21;;;;;;;11.93;3.63;;;;;;;15.01;63.34;102084.09;5052450;28;20053;-49
2021/06/23 09:51:48;;;;;;;13.27;3.78;;;;;;;14.96;63.22;102075.84;5052221;28;20049;-50
2021/06/23 09:54:21;;;;;;;15.23;4.15;;;;;;;14.96;63.99;102081.34;5051688;28;20423;-49
2021/06/23 09:57:06;;;;;;;17.45;4.38;;;;;;;14.96;63.05;102086.81;5052554;28;20044;-49
2021/06/23 09:59:43;;;;;;;15.35;4.45;;;;;;;14.95;63.38;102082.44;5052494;28;20376;-51
2021/06/23 10:02:20;;;;;;;14.27;3.95;;;;;;;14.90;63.96;102077.75;5052107;28;20380;-50
2021/06/23 10:04:47;;;;;;;15.88;4.22;;;;;;;14.89;62.91;102082.41;5052272;28;20049;-48
2021/06/23 10:07:36;;;;;;;8.48;3.40;;;;;;;14.94;63.84;102089.03;5052263;28;20045;-49
2021/06/23 10:10:04;;;;;;;9.93;3.50;;;;;;;14.96;63.20;102086.81;5051760;28;20053;-50
2021/06/23 10:12:32;;;;;;;10.85;3.70;;;;;;;15.03;63.62;102080.03;5052005;28;20041;-49
2021/06/23 10:15:00;;;;;;;13.75;3.88;;;;;;;15.08;62.22;102087.44;5031447;28;20524;-50
2021/06/23 10:17:29;;;;;;;15.52;5.82;;;;;;;15.10;62.17;102082.50;5052222;28;20051;-49
2021/06/23 10:19:57;;;;;;;15.60;4.40;;;;;;;15.13;62.51;102087.47;5051060;28;20045;-48
2021/06/23 10:22:25;;;;;;;13.93;4.18;;;;;;;15.18;62.72;102078.44;5050475;28;20060;-51
2021/06/23 10:24:55;;;;;;;15.73;3.90;;;;;;;15.19;62.25;102080.91;5050878;28;20048;-52
2021/06/23 10:27:24;;;;;;;14.00;4.20;;;;;;;15.22;61.06;102090.53;5052308;28;20566;-52
2021/06/23 10:29:57;;;;;;;11.23;4.15;;;;;;;15.18;60.65;102083.94;5052665;28;20164;-49
2021/06/23 10:32:25;;;;;;;13.43;4.00;;;;;;;15.19;61.96;102083.66;5051749;28;20053;-48
2021/06/23 10:34:53;;;;;;;12.82;4.22;;;;;;;15.26;61.43;102081.47;5051863;28;20044;-49
2021/06/23 10:37:22;;;;;;;14.02;4.32;;;;;;;15.29;61.22;102085.59;5051757;28;20495;-49
2021/06/23 10:39:51;;;;;;;14.65;5.03;;;;;;;15.32;61.43;102082.31;5050316;28;20041;-50
2021/06/23 10:42:24;;;;;;;16.50;4.68;;;;;;;15.36;61.86;102079.88;5051131;28;20044;-50
2021/06/23 10:44:54;;;;;;;8.55;3.45;;;;;;;15.41;60.52;102085.38;5047521;28;20428;-49
2021/06/23 10:47:42;;;;;;;12.20;3.50;;;;;;;15.43;60.90;102080.44;5051850;28;20460;-50
2021/06/23 10:50:31;;;;;;;14.05;4.50;;;;;;;15.45;60.41;102079.09;5045720;28;20051;-49
2021/06/23 10:52:59;;;;;;;16.77;4.45;;;;;;;15.44;60.41;102088.44;4352240;28;10001365;-49
2021/06/23 10:55:27;;;;;;;9.80;3.83;;;;;;;15.43;60.61;102089.50;5049936;28;20499;-48
2021/06/23 10:58:09;;;;;;;9.90;4.15;;;;;;;15.46;61.26;102090.88;5049580;28;20053;-46
2021/06/23 11:00:40;;;;;;;11.70;4.55;;;;;;;15.50;61.10;102090.09;5036995;28;20049;-51
2021/06/23 11:03:18;;;;;;;12.35;4.20;;;;;;;15.52;60.85;102090.63;5048882;28;20103;-50
2021/06/23 11:05:50;;;;;;;12.63;4.35;;;;;;;15.55;60.39;102092.03;5049117;28;20049;-50
2021/06/23 11:08:25;;;;;;;16.92;4.45;;;;;;;15.52;59.29;102089.81;5049425;28;20041;-48
2021/06/23 11:10:53;;;;;;;14.95;4.32;;;;;;;15.54;59.75;102093.13;5049636;28;20056;-50
2021/06/23 11:13:30;;;;;;;13.43;4.57;;;;;;;15.55;59.91;102083.78;5049136;28;20052;-49
2021/06/23 11:15:58;;;;;;;11.50;4.40;;;;;;;15.57;60.28;102087.09;5049354;28;20037;-48
2021/06/23 11:18:28;;;;;;;13.27;4.25;;;;;;;15.57;60.26;102087.09;5049735;28;20561;-50
2021/06/23 11:20:58;;;;;;;9.68;3.90;;;;;;;15.61;60.33;102090.09;5049061;28;20048;-51
2021/06/23 11:24:03;;;;;;;17.05;4.70;;;;;;;15.65;60.58;102080.22;5049449;28;20110;-51
2021/06/23 11:26:30;;;;;;;11.25;4.03;;;;;;;15.65;60.47;102077.47;5049253;28;20491;-51
2021/06/23 11:29:13;;;;;;;11.48;4.40;;;;;;;15.69;61.03;102084.91;5048192;28;20275;-50
2021/06/23 11:31:44;;;;;;;11.98;4.15;;;;;;;15.73;59.58;102074.25;5044933;28;20053;-49
2021/06/23 11:34:38;;;;;;;14.27;4.65;;;;;;;15.76;59.61;102080.00;5046292;28;20049;-48
2021/06/23 11:37:08;;;;;;;11.20;4.40;;;;;;;15.80;59.05;102084.97;5049464;28;20052;-50
2021/06/23 11:39:36;;;;;;;13.38;4.10;;;;;;;15.77;58.99;102083.56;5049304;28;20492;-49
2021/06/23 11:42:05;;;;;;;13.75;4.60;;;;;;;15.77;58.86;102078.91;5051212;28;20045;-50
2021/06/23 11:44:35;;;;;;;15.02;4.32;;;;;;;15.79;59.07;102075.91;5051299;28;20052;-49
2021/06/23 11:47:03;;;;;;;15.02;4.75;;;;;;;15.88;59.52;102085.25;5051548;28;20450;-49
2021/06/23 11:49:40;;;;;;;16.27;4.75;;;;;;;15.93;58.88;102076.19;5049888;28;20060;-50
2021/06/23 11:52:39;;;;;;;12.60;4.43;;;;;;;15.91;58.46;102081.94;5009025;28;20612;-49
2021/06/23 11:55:07;;;;;;;12.18;4.55;;;;;;;15.91;58.89;102070.97;4990358;28;20042;-49
2021/06/23 11:57:35;;;;;;;14.77;4.68;;;;;;;15.94;59.29;102080.56;5009221;28;20042;-50
2021/06/23 12:00:06;;;;;;;10.45;3.85;;;;;;;15.95;58.50;102076.75;5008808;28;20049;-48